Aeroporto :
LOGIN :

Iscrizione | Disclaimer

   EN    FR    IT 

 










Sommario :    VFR   VFR Marginale   IFR   IFR Intensivo   IFR Molto Intensivo
Visibilità : 
Base nubi : 
>= 8 km
>= 3000ft
5 / 8 km
1000 / 3000 ft
1500m / 5 km
500 / 1000 ft
800 / 1500m
200 / 500 ft
< 800m
< 200 ft
Simboli :   Temporali  Nebbia  Neve Forte  Precipitazioni Forti  Vento > 20 kt
SIGMETs :   Varie  Temporali  Ghiacco  Turbolenza  Onda orograficha  Ceneri Vulcaniche






- Altitudine del aeroporto : 637 ft
- Codice IATA : MVQ


UMOO - Mogilev

ULTIMO METAR :
  • 071000Z 21005MPS CAVOK 16/M02 Q1033 R13/CLRD// NOSIG

METARs OBSOLETI :
  • 070900Z 20004MPS CAVOK 15/M02 Q1033 R13/CLRD// NOSIG
  • 070800Z 22002MPS CAVOK 14/00 Q1034 R13/CLRD// NOSIG

TAF TAF UMOO
Valido dal 07 a 09 ore il 07 a 18 ore UTC


070800Z 0709/0718 22006MPS 9999 SCT030
TEMPO 0709/0718 19007G12MPS



MetMap, La meteo Aeronautica in un colpo d'occhio ! - Copyright ORBIFLY Dicembre 2007 - Disclaimer

ORBIFLY MET'MAP TEAM :

Programmazione e sviluppo : Alexandra Zaïnal
Concezione : Baudouin d'Aumeries
Aiuto per la programmazione : Marc-Olivier Méhu
Supporto tecnico e logistico : Manuel Goepfert
Aiuto per la traduzione : Arnaldo La Scala

Contatto : metmap@orbifly.com




FONTI E CREDITI :

   NOAA